Arcadia, Illinois
Current Conditions -  °F | °C
As of 2:55 PM on Thursday 18 Dec 2014 (Local Time) from KIJX Reporting Station
Light Rain Light Rain  
Wind Chill: 31°   Ceiling: 1300
Heat Index: 31°   Visibility: 7mi
Dew Point: 26°   Wind: 0mph
Humidity: 82%   Direction: NA
Pressure: 30.24"   Gusts: NA
Location:  39.7413°N, 90.2138°W
Report Text: KIJX 182055Z AUTO 00000KT 7SM -RA OVC013 00/M03 A3024 RMK AO2 60002 T10031031
Loading
Personal Weather Stations






























Interactive Weather Map New forecast layout! Learn more

10-Day Weather Forecast

Advertisements
Track Severe Weather on mobile